Time;durP1;ratioP1;P1;durP2;ratioP2;P2;SDS_P1;SDS_P2;PMS_P1;PMS_P2;Temp;Humidity;BMP_temperature;BMP_pressure;BME280_temperature;BME280_humidity;BME280_pressure;Samples;Min_cycle;Max_cycle;Signal;HPM_P1;HPM_P2
2021/08/14 00:00:30;;;;;;;;;;;17.70;99.50;;;;;;5035048;28;19915;-83
2021/08/14 00:02:56;;;;;;;;;;;17.70;99.60;;;;;;5054104;28;19978;-83
2021/08/14 00:05:21;;;;;;;;;;;17.70;99.60;;;;;;5036188;28;20361;-83
2021/08/14 00:07:47;;;;;;;;;;;17.70;99.50;;;;;;5037468;28;19944;-83
2021/08/14 00:10:12;;;;;;;;;;;17.70;99.50;;;;;;5038711;28;19956;-83
2021/08/14 00:12:38;;;;;;;;;;;17.70;99.50;;;;;;5057141;28;20000;-83
2021/08/14 00:15:04;;;;;;;;;;;17.60;99.50;;;;;;5057438;28;19958;-82
2021/08/14 00:17:30;;;;;;;;;;;17.60;99.60;;;;;;5057007;28;20381;-83
2021/08/14 00:19:55;;;;;;;;;;;17.60;99.60;;;;;;5038560;28;19938;-82
2021/08/14 00:22:21;;;;;;;;;;;17.60;99.60;;;;;;5038789;28;20418;-83
2021/08/14 00:24:46;;;;;;;;;;;17.50;99.60;;;;;;5039233;28;19916;-82
2021/08/14 00:27:12;;;;;;;;;;;17.50;99.70;;;;;;5039056;28;19908;-83
2021/08/14 00:29:38;;;;;;;;;;;17.50;99.70;;;;;;5038377;28;19909;-83
2021/08/14 00:32:04;;;;;;;;;;;17.50;99.80;;;;;;5038571;28;20002;-83
2021/08/14 00:34:29;;;;;;;;;;;17.50;99.90;;;;;;5038629;28;20365;-83
2021/08/14 00:36:55;;;;;;;;;;;17.50;99.90;;;;;;5038536;28;19909;-83
2021/08/14 00:39:20;;;;;;;;;;;17.40;99.90;;;;;;5038436;28;19931;-83
2021/08/14 00:41:46;;;;;;;;;;;17.50;99.90;;;;;;5038844;28;19917;-83
2021/08/14 00:44:11;;;;;;;;;;;17.40;99.90;;;;;;5038474;28;19909;-83
2021/08/14 00:46:37;;;;;;;;;;;17.50;99.90;;;;;;5056619;28;20365;-82
2021/08/14 00:49:03;;;;;;;;;;;17.50;99.90;;;;;;5056907;28;20379;-83
2021/08/14 00:51:29;;;;;;;;;;;17.40;99.80;;;;;;5038625;28;19991;-82
2021/08/14 00:53:54;;;;;;;;;;;17.40;99.80;;;;;;5056704;28;19909;-83
2021/08/14 00:56:20;;;;;;;;;;;17.30;99.90;;;;;;5037998;28;19908;-82
2021/08/14 00:58:47;;;;;;;;;;;17.30;99.90;;;;;;5055882;28;19912;-82
2021/08/14 01:01:13;;;;;;;;;;;17.30;99.90;;;;;;5037571;28;19919;-82
2021/08/14 01:03:38;;;;;;;;;;;17.30;99.90;;;;;;5037846;28;19909;-82
2021/08/14 01:06:04;;;;;;;;;;;17.20;99.90;;;;;;5055855;28;19909;-83
2021/08/14 01:08:29;;;;;;;;;;;17.20;99.90;;;;;;5056271;28;19909;-83
2021/08/14 01:10:55;;;;;;;;;;;17.20;99.90;;;;;;5037308;28;19956;-83
2021/08/14 01:13:21;;;;;;;;;;;17.20;99.90;;;;;;5038469;28;19915;-83
2021/08/14 01:15:48;;;;;;;;;;;17.20;99.90;;;;;;5038099;28;20365;-83
2021/08/14 01:18:16;;;;;;;;;;;17.10;99.90;;;;;;5037201;28;20003;-83
2021/08/14 01:20:45;;;;;;;;;;;17.20;99.90;;;;;;5037281;28;19923;-83
2021/08/14 01:23:14;;;;;;;;;;;17.20;99.90;;;;;;5037449;28;19909;-83
2021/08/14 01:25:40;;;;;;;;;;;17.20;99.90;;;;;;5055473;28;19931;-83
2021/08/14 01:28:06;;;;;;;;;;;17.10;99.90;;;;;;5037414;28;20301;-83
2021/08/14 01:30:32;;;;;;;;;;;17.10;99.90;;;;;;5036863;28;19931;-83
2021/08/14 01:32:58;;;;;;;;;;;17.10;99.90;;;;;;5054872;28;20381;-83
2021/08/14 01:35:23;;;;;;;;;;;17.00;99.90;;;;;;5037253;28;19923;-83
2021/08/14 01:37:49;;;;;;;;;;;17.00;99.90;;;;;;5037186;28;19939;-82
2021/08/14 01:40:14;;;;;;;;;;;17.00;99.90;;;;;;5036927;28;20369;-83
2021/08/14 01:42:40;;;;;;;;;;;17.00;99.90;;;;;;5036906;28;19909;-82
2021/08/14 01:45:07;;;;;;;;;;;17.00;99.90;;;;;;5036945;28;20352;-82
2021/08/14 01:47:32;;;;;;;;;;;17.00;99.90;;;;;;5054976;28;20499;-83
2021/08/14 01:49:58;;;;;;;;;;;17.00;99.90;;;;;;5054345;28;19908;-83
2021/08/14 01:52:23;;;;;;;;;;;16.90;99.90;;;;;;5054840;28;19909;-83
2021/08/14 01:54:49;;;;;;;;;;;16.90;99.90;;;;;;5036699;28;19920;-83
2021/08/14 01:57:16;;;;;;;;;;;16.90;99.90;;;;;;5036845;28;20392;-83
2021/08/14 01:59:42;;;;;;;;;;;16.90;99.90;;;;;;5054462;28;19909;-83
2021/08/14 02:02:07;;;;;;;;;;;16.90;99.90;;;;;;5036549;28;19909;-83
2021/08/14 02:04:33;;;;;;;;;;;16.90;99.90;;;;;;5036775;28;19913;-82
2021/08/14 02:06:58;;;;;;;;;;;16.90;99.90;;;;;;5036767;28;19908;-83
2021/08/14 02:09:24;;;;;;;;;;;16.80;99.90;;;;;;5036068;28;20391;-82
2021/08/14 02:11:49;;;;;;;;;;;16.80;99.90;;;;;;5036418;28;19909;-83
2021/08/14 02:14:15;;;;;;;;;;;16.80;99.90;;;;;;5054633;28;19999;-83
2021/08/14 02:16:40;;;;;;;;;;;16.90;99.90;;;;;;5036583;28;19936;-83
2021/08/14 02:19:06;;;;;;;;;;;16.90;99.90;;;;;;5053733;28;20419;-82
2021/08/14 02:21:32;;;;;;;;;;;16.80;99.90;;;;;;5036312;28;20027;-83
2021/08/14 02:23:58;;;;;;;;;;;16.80;99.90;;;;;;5036605;28;20362;-83
2021/08/14 02:26:24;;;;;;;;;;;16.80;99.90;;;;;;5036764;28;20262;-83
2021/08/14 02:28:50;;;;;;;;;;;16.80;99.90;;;;;;5035643;28;19916;-82
2021/08/14 02:31:16;;;;;;;;;;;16.80;99.90;;;;;;5035494;28;19909;-83
2021/08/14 02:33:41;;;;;;;;;;;16.90;99.90;;;;;;5036341;28;20100;-83
2021/08/14 02:36:07;;;;;;;;;;;16.90;99.90;;;;;;5036510;28;19966;-82
2021/08/14 02:38:33;;;;;;;;;;;16.80;99.90;;;;;;5036465;28;19962;-82
2021/08/14 02:40:59;;;;;;;;;;;16.80;99.90;;;;;;5053987;28;19908;-83
2021/08/14 02:43:25;;;;;;;;;;;16.80;99.90;;;;;;5054101;28;19931;-83
2021/08/14 02:45:51;;;;;;;;;;;16.80;99.90;;;;;;5035635;28;19909;-82
2021/08/14 02:48:16;;;;;;;;;;;16.80;99.90;;;;;;5053095;28;19917;-82
2021/08/14 02:50:43;;;;;;;;;;;16.80;99.90;;;;;;5035357;28;19920;-83
2021/08/14 02:53:08;;;;;;;;;;;16.80;99.90;;;;;;5053824;28;20271;-83
2021/08/14 02:55:34;;;;;;;;;;;16.80;99.90;;;;;;5054382;28;19971;-83
2021/08/14 02:57:59;;;;;;;;;;;16.70;99.90;;;;;;5035933;28;19908;-83
2021/08/14 03:00:25;;;;;;;;;;;16.70;99.90;;;;;;5053678;28;19961;-82
2021/08/14 03:02:50;;;;;;;;;;;16.70;99.90;;;;;;5036053;28;19916;-83
2021/08/14 03:05:16;;;;;;;;;;;16.70;99.90;;;;;;5035808;28;19916;-83
2021/08/14 03:07:41;;;;;;;;;;;16.70;99.90;;;;;;5035331;28;19913;-83
2021/08/14 03:10:07;;;;;;;;;;;16.70;99.90;;;;;;5035563;28;19962;-82
2021/08/14 03:12:32;;;;;;;;;;;16.70;99.90;;;;;;5054173;28;19913;-82
2021/08/14 03:14:58;;;;;;;;;;;16.80;99.90;;;;;;5035421;28;19919;-82
2021/08/14 03:17:24;;;;;;;;;;;16.80;99.90;;;;;;5036245;28;20380;-83
2021/08/14 03:19:49;;;;;;;;;;;16.80;99.90;;;;;;5052816;28;19963;-83
2021/08/14 03:22:15;;;;;;;;;;;16.80;99.90;;;;;;5035730;28;20393;-83
2021/08/14 03:24:40;;;;;;;;;;;16.80;99.90;;;;;;5035527;28;19955;-82
2021/08/14 03:27:06;;;;;;;;;;;16.80;99.90;;;;;;5035680;28;20011;-83
2021/08/14 03:29:32;;;;;;;;;;;16.80;99.90;;;;;;5053082;28;20016;-83
2021/08/14 03:31:57;;;;;;;;;;;16.80;99.90;;;;;;5053384;28;19919;-82
2021/08/14 03:34:23;;;;;;;;;;;16.70;99.90;;;;;;5053346;28;19917;-83
2021/08/14 03:36:48;;;;;;;;;;;16.70;99.90;;;;;;5035356;28;19909;-82
2021/08/14 03:39:14;;;;;;;;;;;16.70;99.90;;;;;;5034870;28;19909;-83
2021/08/14 03:41:39;;;;;;;;;;;16.60;99.90;;;;;;5037020;28;20281;-83
2021/08/14 03:44:05;;;;;;;;;;;16.60;99.90;;;;;;5056992;28;19909;-83
2021/08/14 03:46:30;;;;;;;;;;;16.60;99.90;;;;;;5039488;28;20431;-83
2021/08/14 03:48:56;;;;;;;;;;;16.60;99.90;;;;;;5038615;28;19909;-82
2021/08/14 03:51:22;;;;;;;;;;;16.60;99.90;;;;;;5039468;28;19963;-83
2021/08/14 03:53:47;;;;;;;;;;;16.60;99.90;;;;;;5057511;28;19912;-83
2021/08/14 03:56:13;;;;;;;;;;;16.60;99.90;;;;;;5056752;28;19928;-82
2021/08/14 03:58:38;;;;;;;;;;;16.50;99.90;;;;;;5038940;28;20384;-82
2021/08/14 04:01:04;;;;;;;;;;;16.60;99.90;;;;;;5038594;28;19909;-82
2021/08/14 04:03:30;;;;;;;;;;;16.60;99.90;;;;;;5039112;28;19978;-83
2021/08/14 04:05:58;;;;;;;;;;;16.50;99.90;;;;;;5039145;28;20424;-83
2021/08/14 04:08:24;;;;;;;;;;;16.50;99.90;;;;;;5056870;28;19912;-83
2021/08/14 04:10:50;;;;;;;;;;;16.50;99.90;;;;;;5038337;28;19916;-83
2021/08/14 04:13:15;;;;;;;;;;;16.50;99.90;;;;;;5038966;28;19994;-82
2021/08/14 04:15:41;;;;;;;;;;;16.50;99.90;;;;;;5057002;28;20011;-82
2021/08/14 04:18:06;;;;;;;;;;;16.50;99.90;;;;;;5038865;28;19916;-82
2021/08/14 04:20:32;;;;;;;;;;;16.50;99.90;;;;;;5038785;28;19908;-82
2021/08/14 04:22:57;;;;;;;;;;;16.40;99.90;;;;;;5056636;28;20008;-82
2021/08/14 04:25:23;;;;;;;;;;;16.40;99.90;;;;;;5038971;28;19960;-82
2021/08/14 04:27:48;;;;;;;;;;;16.40;99.90;;;;;;5057137;28;19909;-83
2021/08/14 04:30:14;;;;;;;;;;;16.40;99.90;;;;;;5038472;28;19913;-83
2021/08/14 04:32:40;;;;;;;;;;;16.40;99.90;;;;;;5038789;28;19941;-83
2021/08/14 04:35:06;;;;;;;;;;;16.40;99.90;;;;;;5057677;28;19966;-83
2021/08/14 04:37:32;;;;;;;;;;;16.30;99.90;;;;;;5038573;28;19909;-83
2021/08/14 04:39:58;;;;;;;;;;;16.40;99.90;;;;;;5038092;28;19915;-83
2021/08/14 04:42:23;;;;;;;;;;;16.30;99.90;;;;;;5038017;28;20070;-82
2021/08/14 04:44:49;;;;;;;;;;;16.30;99.90;;;;;;5038323;28;20015;-83
2021/08/14 04:47:14;;;;;;;;;;;16.30;99.90;;;;;;5056293;28;19916;-82
2021/08/14 04:49:40;;;;;;;;;;;16.30;99.90;;;;;;5038031;28;19916;-82
2021/08/14 04:52:05;;;;;;;;;;;16.30;99.90;;;;;;5038227;28;19916;-83
2021/08/14 04:54:31;;;;;;;;;;;16.30;99.90;;;;;;5055795;28;19913;-83
2021/08/14 04:56:56;;;;;;;;;;;16.30;99.90;;;;;;5038388;28;20365;-83
2021/08/14 04:59:22;;;;;;;;;;;16.30;99.90;;;;;;5037726;28;19912;-83
2021/08/14 05:01:48;;;;;;;;;;;16.40;99.90;;;;;;5037866;28;19916;-82
2021/08/14 05:04:13;;;;;;;;;;;16.30;99.90;;;;;;5038104;28;19909;-83
2021/08/14 05:06:39;;;;;;;;;;;16.30;99.90;;;;;;5038328;28;19909;-82
2021/08/14 05:09:05;;;;;;;;;;;16.30;99.90;;;;;;5037616;28;19916;-83
2021/08/14 05:11:31;;;;;;;;;;;16.30;99.90;;;;;;5037996;28;19916;-82
2021/08/14 05:13:56;;;;;;;;;;;16.30;99.90;;;;;;5038149;28;19909;-83
2021/08/14 05:16:25;;;;;;;;;;;16.40;99.90;;;;;;5037993;28;19916;-83
2021/08/14 05:18:54;;;;;;;;;;;16.30;99.90;;;;;;5056119;28;20431;-82
2021/08/14 05:21:19;;;;;;;;;;;16.40;99.90;;;;;;5037663;28;19992;-82
2021/08/14 05:23:45;;;;;;;;;;;16.40;99.90;;;;;;5055642;28;19915;-82
2021/08/14 05:26:10;;;;;;;;;;;16.40;99.90;;;;;;5037499;28;19908;-83
2021/08/14 05:28:36;;;;;;;;;;;16.50;99.90;;;;;;5055624;28;19916;-83
2021/08/14 05:31:01;;;;;;;;;;;16.50;99.90;;;;;;5055149;28;19916;-83
2021/08/14 05:33:27;;;;;;;;;;;16.50;99.90;;;;;;5055556;28;19909;-83
2021/08/14 05:35:53;;;;;;;;;;;16.50;99.90;;;;;;5055610;28;19960;-83
2021/08/14 05:38:18;;;;;;;;;;;16.50;99.90;;;;;;5037243;28;19912;-82
2021/08/14 05:40:44;;;;;;;;;;;16.60;99.90;;;;;;5054623;28;19916;-82
2021/08/14 05:43:09;;;;;;;;;;;16.60;99.90;;;;;;5037085;28;19909;-83
2021/08/14 05:45:35;;;;;;;;;;;16.60;99.90;;;;;;5037629;28;19912;-83
2021/08/14 05:48:01;;;;;;;;;;;16.70;99.90;;;;;;5037327;28;19909;-82
2021/08/14 05:50:27;;;;;;;;;;;16.80;99.90;;;;;;5054568;28;19908;-83
2021/08/14 05:52:52;;;;;;;;;;;16.80;99.90;;;;;;5037171;28;19912;-83
2021/08/14 05:55:18;;;;;;;;;;;16.90;99.90;;;;;;5036767;28;19917;-82
2021/08/14 05:57:43;;;;;;;;;;;17.00;99.90;;;;;;5036990;28;20017;-82
2021/08/14 06:00:09;;;;;;;;;;;17.00;99.90;;;;;;5036022;28;19909;-82
2021/08/14 06:02:35;;;;;;;;;;;17.10;99.90;;;;;;5054886;28;20485;-83
2021/08/14 06:05:00;;;;;;;;;;;17.10;99.90;;;;;;5054254;28;20003;-83
2021/08/14 06:07:26;;;;;;;;;;;17.20;99.90;;;;;;5036711;28;19933;-83
2021/08/14 06:09:51;;;;;;;;;;;17.30;99.90;;;;;;5036229;28;20003;-83
2021/08/14 06:12:17;;;;;;;;;;;17.40;99.90;;;;;;5054934;28;20261;-82
2021/08/14 06:14:42;;;;;;;;;;;17.40;99.90;;;;;;5036584;28;19923;-83
2021/08/14 06:17:09;;;;;;;;;;;17.50;99.90;;;;;;5054669;28;19909;-83
2021/08/14 06:19:36;;;;;;;;;;;17.50;99.90;;;;;;5035982;28;19913;-83
2021/08/14 06:22:01;;;;;;;;;;;17.60;99.90;;;;;;5054507;28;19935;-83
2021/08/14 06:24:27;;;;;;;;;;;17.60;99.90;;;;;;5054482;28;20357;-83
2021/08/14 06:26:53;;;;;;;;;;;17.70;99.90;;;;;;5054622;28;19909;-83
2021/08/14 06:29:18;;;;;;;;;;;17.70;99.90;;;;;;5035704;28;20357;-83
2021/08/14 06:31:43;;;;;;;;;;;17.70;99.90;;;;;;5037357;28;19909;-83
2021/08/14 06:34:09;;;;;;;;;;;17.70;99.90;;;;;;5037997;28;19909;-83
2021/08/14 06:36:35;;;;;;;;;;;17.80;99.90;;;;;;5056006;28;19909;-83
2021/08/14 06:39:00;;;;;;;;;;;17.80;99.90;;;;;;5055067;28;19909;-83
2021/08/14 06:41:26;;;;;;;;;;;17.90;99.90;;;;;;5055518;28;19913;-83
2021/08/14 06:43:51;;;;;;;;;;;17.90;99.90;;;;;;5036916;28;20285;-83
2021/08/14 06:46:19;;;;;;;;;;;17.90;99.90;;;;;;5037101;28;19916;-83
2021/08/14 06:48:44;;;;;;;;;;;18.00;99.90;;;;;;5054551;28;20004;-83
2021/08/14 06:51:12;;;;;;;;;;;18.00;99.90;;;;;;5035432;28;20003;-83
2021/08/14 06:53:37;;;;;;;;;;;18.10;99.90;;;;;;5036670;28;19909;-82
2021/08/14 06:56:03;;;;;;;;;;;18.10;99.90;;;;;;5055016;28;19919;-83
2021/08/14 06:58:29;;;;;;;;;;;18.10;99.90;;;;;;5037789;28;20297;-83
2021/08/14 07:00:54;;;;;;;;;;;18.20;99.90;;;;;;5056571;28;19909;-83
2021/08/14 07:03:20;;;;;;;;;;;18.20;99.90;;;;;;5056058;28;19909;-83
2021/08/14 07:05:45;;;;;;;;;;;18.30;99.70;;;;;;5037814;28;20284;-83
2021/08/14 07:08:11;;;;;;;;;;;18.30;99.60;;;;;;5039264;28;19908;-83
2021/08/14 07:10:36;;;;;;;;;;;18.30;99.30;;;;;;5037589;28;19908;-83
2021/08/14 07:13:02;;;;;;;;;;;18.40;99.00;;;;;;5039027;28;20413;-83
2021/08/14 07:15:28;;;;;;;;;;;18.40;99.20;;;;;;5037932;28;19912;-83
2021/08/14 07:17:54;;;;;;;;;;;18.50;99.40;;;;;;5055717;28;19923;-83
2021/08/14 07:20:19;;;;;;;;;;;18.50;99.40;;;;;;5055290;28;19967;-83
2021/08/14 07:22:45;;;;;;;;;;;18.50;98.80;;;;;;5055400;28;19916;-83
2021/08/14 07:25:10;;;;;;;;;;;18.60;98.90;;;;;;5055618;28;19909;-84
2021/08/14 07:27:36;;;;;;;;;;;18.60;98.40;;;;;;5055452;28;19941;-83
2021/08/14 07:30:02;;;;;;;;;;;18.60;97.10;;;;;;5037163;28;19959;-83
2021/08/14 07:32:28;;;;;;;;;;;18.60;97.60;;;;;;5055958;28;19916;-83
2021/08/14 07:34:55;;;;;;;;;;;18.70;98.10;;;;;;5055292;28;20269;-83
2021/08/14 07:37:20;;;;;;;;;;;18.70;97.10;;;;;;5036836;28;19956;-83
2021/08/14 07:39:46;;;;;;;;;;;18.70;96.70;;;;;;5054666;28;20285;-83
2021/08/14 07:42:11;;;;;;;;;;;18.80;96.50;;;;;;5037343;28;20293;-83
2021/08/14 07:44:37;;;;;;;;;;;18.80;96.20;;;;;;5037272;28;19909;-83
2021/08/14 07:47:02;;;;;;;;;;;18.90;96.30;;;;;;5037106;28;19913;-83
2021/08/14 07:49:28;;;;;;;;;;;18.90;95.70;;;;;;5054883;28;19935;-83
2021/08/14 07:51:53;;;;;;;;;;;18.90;95.70;;;;;;5055564;28;20320;-83
2021/08/14 07:54:19;;;;;;;;;;;18.90;95.80;;;;;;5055549;28;19917;-83
2021/08/14 07:56:44;;;;;;;;;;;19.00;95.70;;;;;;5036689;28;19909;-83
2021/08/14 07:59:10;;;;;;;;;;;19.00;95.60;;;;;;5055557;28;20280;-83
2021/08/14 08:01:35;;;;;;;;;;;19.10;94.70;;;;;;5036932;28;19908;-83
2021/08/14 08:04:02;;;;;;;;;;;19.10;94.50;;;;;;5036848;28;19917;-83
2021/08/14 08:06:27;;;;;;;;;;;19.10;94.20;;;;;;5036862;28;20328;-82
2021/08/14 08:08:53;;;;;;;;;;;19.20;94.20;;;;;;5036572;28;19913;-83
2021/08/14 08:11:18;;;;;;;;;;;19.20;94.10;;;;;;5037062;28;19914;-83
2021/08/14 08:13:44;;;;;;;;;;;19.20;93.30;;;;;;5037396;28;19909;-83
2021/08/14 08:16:09;;;;;;;;;;;19.30;92.70;;;;;;5036839;28;19913;-83
2021/08/14 08:18:35;;;;;;;;;;;19.30;92.90;;;;;;5037173;28;20367;-83
2021/08/14 08:21:00;;;;;;;;;;;19.40;92.80;;;;;;5036296;28;19913;-83
2021/08/14 08:23:26;;;;;;;;;;;19.40;92.80;;;;;;5055348;28;19913;-83
2021/08/14 08:25:51;;;;;;;;;;;19.50;92.50;;;;;;5036067;28;19996;-83
2021/08/14 08:28:21;;;;;;;;;;;19.50;92.60;;;;;;5037805;28;20373;-83
2021/08/14 08:30:46;;;;;;;;;;;19.50;92.50;;;;;;5058120;28;19909;-83
2021/08/14 08:33:12;;;;;;;;;;;19.60;91.10;;;;;;5058602;28;19909;-83
2021/08/14 08:35:37;;;;;;;;;;;19.60;91.00;;;;;;5057787;28;19913;-83
2021/08/14 08:38:03;;;;;;;;;;;19.60;90.50;;;;;;5039766;28;19923;-82
2021/08/14 08:40:31;;;;;;;;;;;19.70;90.80;;;;;;5039411;28;19912;-83
2021/08/14 08:42:57;;;;;;;;;;;19.70;90.50;;;;;;5057749;28;19936;-83
2021/08/14 08:45:22;;;;;;;;;;;19.80;90.20;;;;;;5058075;28;20280;-83
2021/08/14 08:47:49;;;;;;;;;;;19.80;90.30;;;;;;5057939;28;20367;-83
2021/08/14 08:50:15;;;;;;;;;;;19.80;90.10;;;;;;5039189;28;19936;-83
2021/08/14 08:52:42;;;;;;;;;;;19.90;89.90;;;;;;5058511;28;19913;-83
2021/08/14 08:55:09;;;;;;;;;;;19.90;89.60;;;;;;5040184;28;20369;-83
2021/08/14 08:57:35;;;;;;;;;;;20.00;87.70;;;;;;5040086;28;20031;-83
2021/08/14 09:00:00;;;;;;;;;;;20.00;87.80;;;;;;5039064;28;20003;-83
2021/08/14 09:02:33;;;;;;;;;;;20.10;87.20;;;;;;5039435;28;19994;-83
2021/08/14 09:05:05;;;;;;;;;;;20.10;85.00;;;;;;5040166;28;19943;-83
2021/08/14 09:07:31;;;;;;;;;;;20.10;85.30;;;;;;5039629;28;19916;-83
2021/08/14 09:09:57;;;;;;;;;;;20.10;86.10;;;;;;5038954;28;19909;-83
2021/08/14 09:12:30;;;;;;;;;;;20.20;85.70;;;;;;5057762;28;19913;-83
2021/08/14 09:14:55;;;;;;;;;;;20.20;85.40;;;;;;5039699;28;19913;-82
2021/08/14 09:17:24;;;;;;;;;;;20.30;84.30;;;;;;5057661;28;19920;-83
2021/08/14 09:20:03;;;;;;;;;;;20.30;84.10;;;;;;5056647;28;19932;-83
2021/08/14 09:22:28;;;;;;;;;;;20.30;83.90;;;;;;5039336;28;19916;-83
2021/08/14 09:24:54;;;;;;;;;;;20.30;83.70;;;;;;5039211;28;19909;-83
2021/08/14 09:27:19;;;;;;;;;;;20.30;82.90;;;;;;5057885;28;19909;-83
2021/08/14 09:29:46;;;;;;;;;;;20.30;82.30;;;;;;5039207;28;19909;-83
2021/08/14 09:32:12;;;;;;;;;;;20.40;80.50;;;;;;5056494;28;20385;-83
2021/08/14 09:34:42;;;;;;;;;;;20.50;80.50;;;;;;5057191;28;20292;-83
2021/08/14 09:37:09;;;;;;;;;;;20.50;80.60;;;;;;5039182;28;20381;-83
2021/08/14 09:39:56;;;;;;;;;;;20.50;80.60;;;;;;5037791;28;19955;-83
2021/08/14 09:42:21;;;;;;;;;;;20.50;79.50;;;;;;5039128;28;19909;-83
2021/08/14 09:45:07;;;;;;;;;;;20.50;80.30;;;;;;5056598;28;20281;-83
2021/08/14 09:47:33;;;;;;;;;;;20.60;79.80;;;;;;5038742;28;20277;-83
2021/08/14 09:49:58;;;;;;;;;;;20.60;80.60;;;;;;5038334;28;19908;-83
2021/08/14 09:52:25;;;;;;;;;;;20.60;80.50;;;;;;5038669;28;19916;-83
2021/08/14 09:54:51;;;;;;;;;;;20.70;79.60;;;;;;5037988;28;19913;-82
2021/08/14 09:57:17;;;;;;;;;;;20.70;79.80;;;;;;5056470;28;19940;-83
2021/08/14 09:59:46;;;;;;;;;;;20.70;79.90;;;;;;5056389;28;19908;-82
2021/08/14 10:02:25;;;;;;;;;;;20.70;80.20;;;;;;5038408;28;19915;-83
2021/08/14 10:04:51;;;;;;;;;;;20.70;79.70;;;;;;5038498;28;19994;-83
2021/08/14 10:07:17;;;;;;;;;;;20.70;79.30;;;;;;5038159;28;19909;-83
2021/08/14 10:09:43;;;;;;;;;;;20.80;79.70;;;;;;5037757;28;20258;-83
2021/08/14 10:12:12;;;;;;;;;;;20.90;79.70;;;;;;5038465;28;19931;-83
2021/08/14 10:14:41;;;;;;;;;;;21.00;78.10;;;;;;5056808;28;20035;-83
2021/08/14 10:17:07;;;;;;;;;;;21.00;77.60;;;;;;5038619;28;19952;-83
2021/08/14 10:19:33;;;;;;;;;;;21.00;77.30;;;;;;5038420;28;19916;-83
2021/08/14 10:21:59;;;;;;;;;;;21.00;77.20;;;;;;5056670;28;19908;-83
2021/08/14 10:24:25;;;;;;;;;;;21.00;77.40;;;;;;5038126;28;19908;-83
2021/08/14 10:27:04;;;;;;;;;;;21.20;76.80;;;;;;5056951;28;19909;-83
2021/08/14 10:29:42;;;;;;;;;;;21.20;76.00;;;;;;5056554;28;19976;-82
2021/08/14 10:32:08;;;;;;;;;;;21.20;75.70;;;;;;5039081;28;19915;-82
2021/08/14 10:34:33;;;;;;;;;;;21.20;76.40;;;;;;5039533;28;19913;-83
2021/08/14 10:36:59;;;;;;;;;;;21.20;76.80;;;;;;5041235;28;19909;-83
2021/08/14 10:39:25;;;;;;;;;;;21.30;76.20;;;;;;5039667;28;20416;-83
2021/08/14 10:41:52;;;;;;;;;;;21.30;76.50;;;;;;5040218;28;20286;-83
2021/08/14 10:44:35;;;;;;;;;;;21.40;76.90;;;;;;5057904;28;19915;-83
2021/08/14 10:47:01;;;;;;;;;;;21.40;76.70;;;;;;5039364;28;19959;-83
2021/08/14 10:49:32;;;;;;;;;;;21.40;77.30;;;;;;5038005;28;19909;-83
2021/08/14 10:52:01;;;;;;;;;;;21.40;77.30;;;;;;5039386;28;19916;-83
2021/08/14 10:54:30;;;;;;;;;;;21.40;77.00;;;;;;5057708;28;20392;-83
2021/08/14 10:56:58;;;;;;;;;;;21.40;77.90;;;;;;5038966;28;19999;-83
2021/08/14 11:02:10;;;;;;;;;;;21.60;77.70;;;;;;5056886;28;19913;-83
2021/08/14 11:04:44;;;;;;;;;;;21.60;77.40;;;;;;5038892;28;19915;-83
2021/08/14 11:07:18;;;;;;;;;;;21.50;77.20;;;;;;5038383;28;19909;-83
2021/08/14 11:09:45;;;;;;;;;;;21.60;77.70;;;;;;5038290;28;19909;-83
2021/08/14 11:12:10;;;;;;;;;;;21.60;78.00;;;;;;5038679;28;19913;-83
2021/08/14 11:14:41;;;;;;;;;;;21.60;78.60;;;;;;5039267;28;20058;-83
2021/08/14 11:17:07;;;;;;;;;;;21.60;77.20;;;;;;5038952;28;20062;-83
2021/08/14 11:19:41;;;;;;;;;;;21.70;78.20;;;;;;5093262;22;20372;-87
2021/08/14 11:22:22;;;;;;;;;;;21.70;77.60;;;;;;5072554;28;19916;-87
2021/08/14 11:24:48;;;;;;;;;;;21.80;77.80;;;;;;5071769;28;19915;-88
2021/08/14 11:27:19;;;;;;;;;;;21.80;77.90;;;;;;5071236;28;19909;-88
2021/08/14 11:29:45;;;;;;;;;;;21.80;77.80;;;;;;5070571;28;19944;-87
2021/08/14 11:32:11;;;;;;;;;;;21.90;77.70;;;;;;5070708;28;20005;-88
2021/08/14 11:34:37;;;;;;;;;;;22.00;76.60;;;;;;5071253;28;19917;-88
2021/08/14 11:37:02;;;;;;;;;;;22.00;76.80;;;;;;5071480;28;19915;-88
2021/08/14 11:39:28;;;;;;;;;;;22.10;76.00;;;;;;5070504;28;20280;-88
2021/08/14 11:41:54;;;;;;;;;;;22.20;76.20;;;;;;5071056;28;20292;-87
2021/08/14 11:44:20;;;;;;;;;;;22.30;76.10;;;;;;5071315;28;19915;-87
2021/08/14 11:46:46;;;;;;;;;;;22.30;76.80;;;;;;5072498;28;19915;-87
2021/08/14 11:49:11;;;;;;;;;;;22.30;77.50;;;;;;5070587;28;20288;-88
2021/08/14 11:51:36;;;;;;;;;;;22.30;76.30;;;;;;5070994;28;19909;-88
2021/08/14 11:54:06;;;;;;;;;;;22.40;77.50;;;;;;5071227;28;19960;-88
2021/08/14 11:56:32;;;;;;;;;;;22.30;78.00;;;;;;5087989;28;19913;-87
2021/08/14 11:58:57;;;;;;;;;;;22.40;77.50;;;;;;5070555;28;19908;-88
2021/08/14 12:01:23;;;;;;;;;;;22.50;78.10;;;;;;5072353;28;19920;-87
2021/08/14 12:03:56;;;;;;;;;;;22.50;77.80;;;;;;5073082;28;20387;-88
2021/08/14 12:06:22;;;;;;;;;;;22.60;77.40;;;;;;5075264;28;19908;-87
2021/08/14 12:08:48;;;;;;;;;;;22.50;78.20;;;;;;5074992;28;19960;-88
2021/08/14 12:11:19;;;;;;;;;;;22.50;78.90;;;;;;5076481;28;20388;-88
2021/08/14 12:13:44;;;;;;;;;;;22.40;79.10;;;;;;5077737;28;19915;-87
2021/08/14 12:16:19;;;;;;;;;;;22.40;78.50;;;;;;5077902;28;19926;-88
2021/08/14 12:18:46;;;;;;;;;;;22.40;78.80;;;;;;5076248;28;19916;-87
2021/08/14 12:21:12;;;;;;;;;;;22.40;79.80;;;;;;5074068;28;19908;-88
2021/08/14 12:23:39;;;;;;;;;;;22.50;79.70;;;;;;5074575;28;20379;-88
2021/08/14 12:26:08;;;;;;;;;;;22.50;78.10;;;;;;5075560;28;19915;-87
2021/08/14 12:28:38;;;;;;;;;;;22.70;77.90;;;;;;5074633;28;19999;-87
2021/08/14 12:31:14;;;;;;;;;;;22.60;78.20;;;;;;5075620;28;19909;-88
2021/08/14 12:33:45;;;;;;;;;;;22.70;78.60;;;;;;5078649;28;19909;-87
2021/08/14 12:36:10;;;;;;;;;;;22.70;78.00;;;;;;5076434;28;20295;-88
2021/08/14 12:38:45;;;;;;;;;;;22.70;78.30;;;;;;5073977;28;19909;-88
2021/08/14 12:41:17;;;;;;;;;;;22.70;78.30;;;;;;5073545;28;19920;-88
2021/08/14 12:43:44;;;;;;;;;;;22.70;79.30;;;;;;5092199;28;19915;-88
2021/08/14 12:46:22;;;;;;;;;;;22.70;78.30;;;;;;5074361;28;19962;-88
2021/08/14 12:49:06;;;;;;;;;;;22.80;79.40;;;;;;5075875;28;19951;-87
2021/08/14 12:51:32;;;;;;;;;;;22.80;79.40;;;;;;5074242;28;19968;-88
2021/08/14 12:54:08;;;;;;;;;;;22.80;79.10;;;;;;5090845;28;20003;-88
2021/08/14 12:56:36;;;;;;;;;;;22.90;79.50;;;;;;5074759;28;19924;-88
2021/08/14 12:59:02;;;;;;;;;;;22.90;80.60;;;;;;5074513;28;19916;-87
2021/08/14 13:01:27;;;;;;;;;;;22.80;80.60;;;;;;5075511;28;20262;-88
2021/08/14 13:03:53;;;;;;;;;;;22.80;80.30;;;;;;5075803;28;20440;-88
2021/08/14 13:06:18;;;;;;;;;;;22.80;80.00;;;;;;5073659;28;19918;-87
2021/08/14 13:08:44;;;;;;;;;;;22.90;80.40;;;;;;5073919;28;19909;-88
2021/08/14 13:11:09;;;;;;;;;;;22.90;80.90;;;;;;5089982;28;20360;-88
2021/08/14 13:13:35;;;;;;;;;;;22.90;80.40;;;;;;5075641;28;19912;-88
2021/08/14 13:16:00;;;;;;;;;;;22.90;79.90;;;;;;5074839;28;19920;-88
2021/08/14 13:18:26;;;;;;;;;;;22.90;80.90;;;;;;5073298;28;19916;-88
2021/08/14 13:20:51;;;;;;;;;;;23.00;80.80;;;;;;5074209;28;19909;-88
2021/08/14 13:23:17;;;;;;;;;;;23.10;80.30;;;;;;5073622;28;20361;-88
2021/08/14 13:25:42;;;;;;;;;;;23.20;80.10;;;;;;5075115;28;20304;-88
2021/08/14 13:28:08;;;;;;;;;;;23.20;80.10;;;;;;5075131;28;19908;-88
2021/08/14 13:30:34;;;;;;;;;;;23.20;80.00;;;;;;5089546;28;19919;-88
2021/08/14 13:33:00;;;;;;;;;;;23.30;80.60;;;;;;5072903;28;19909;-88
2021/08/14 13:35:26;;;;;;;;;;;23.30;81.20;;;;;;5074212;28;19919;-88
2021/08/14 13:37:51;;;;;;;;;;;23.30;81.00;;;;;;5073284;28;19908;-88
2021/08/14 13:40:17;;;;;;;;;;;23.30;82.00;;;;;;5077455;28;19909;-88
2021/08/14 13:42:43;;;;;;;;;;;23.40;81.30;;;;;;5094282;28;19909;-88
2021/08/14 13:45:10;;;;;;;;;;;23.40;81.60;;;;;;5093452;28;19909;-88
2021/08/14 13:47:36;;;;;;;;;;;23.40;81.60;;;;;;5083325;28;19909;-88
2021/08/14 13:50:05;;;;;;;;;;;23.40;81.00;;;;;;5092417;28;19976;-88
2021/08/14 13:52:31;;;;;;;;;;;23.30;81.80;;;;;;5073324;28;19909;-88
2021/08/14 13:54:57;;;;;;;;;;;23.30;82.80;;;;;;5074222;28;19912;-88
2021/08/14 13:57:22;;;;;;;;;;;23.40;82.70;;;;;;5075479;28;19908;-88
2021/08/14 13:59:48;;;;;;;;;;;23.50;82.60;;;;;;5072328;28;19909;-88
2021/08/14 14:02:14;;;;;;;;;;;23.40;82.60;;;;;;5073205;28;20337;-88
2021/08/14 14:04:39;;;;;;;;;;;23.50;83.60;;;;;;5075677;28;19912;-88
2021/08/14 14:07:05;;;;;;;;;;;23.50;82.80;;;;;;5077233;28;20296;-87
2021/08/14 14:09:30;;;;;;;;;;;23.50;82.50;;;;;;5083158;28;19904;-88
2021/08/14 14:11:57;;;;;;;;;;;23.50;83.30;;;;;;5108805;28;19915;-87
2021/08/14 14:14:22;;;;;;;;;;;23.70;83.30;;;;;;5092926;28;19972;-88